Time;durP1;ratioP1;P1;durP2;ratioP2;P2;SDS_P1;SDS_P2;PMS_P1;PMS_P2;Temp;Humidity;BMP_temperature;BMP_pressure;BME280_temperature;BME280_humidity;BME280_pressure;Samples;Min_cycle;Max_cycle;Signal;HPM_P1;HPM_P2
2022/03/13 00:01:13;;;;;;;12.38;4.38;;;2.20;81.10;;;;;;10392599;28;20104;-87
2022/03/13 00:06:27;;;;;;;13.40;5.03;;;2.20;81.40;;;;;;10376905;28;20049;-87
2022/03/13 00:11:30;;;;;;;21.15;4.22;;;2.10;81.50;;;;;;10392860;28;20064;-87
2022/03/13 00:16:33;;;;;;;11.02;4.47;;;2.00;82.70;;;;;;10410369;28;20063;-87
2022/03/13 00:21:35;;;;;;;14.25;4.07;;;2.00;83.00;;;;;;10390220;28;20048;-87
2022/03/13 00:26:37;;;;;;;10.85;3.90;;;1.90;82.70;;;;;;10395930;28;20021;-87
2022/03/13 00:31:39;;;;;;;10.27;4.45;;;1.90;85.40;;;;;;10415453;28;20490;-87
2022/03/13 00:36:46;;;;;;;9.70;4.18;;;1.80;86.90;;;;;;10403574;28;20072;-87
2022/03/13 00:41:48;;;;;;;9.63;3.63;;;1.70;87.40;;;;;;10416453;28;20559;-87
2022/03/13 00:46:50;;;;;;;7.93;3.90;;;1.70;88.00;;;;;;10430385;28;20065;-87
2022/03/13 00:51:52;;;;;;;8.10;3.17;;;1.60;87.60;;;;;;10412090;28;20041;-87
2022/03/13 00:56:54;;;;;;;8.82;3.25;;;1.50;88.00;;;;;;10412563;28;20120;-87
2022/03/13 01:01:56;;;;;;;12.25;4.25;;;1.50;90.80;;;;;;10414197;28;20061;-87
2022/03/13 01:06:58;;;;;;;10.65;3.08;;;1.40;91.10;;;;;;10447196;28;20136;-88
2022/03/13 01:12:00;;;;;;;8.73;3.60;;;1.30;90.20;;;;;;10426832;28;20077;-87
2022/03/13 01:17:05;;;;;;;7.88;3.55;;;1.30;91.20;;;;;;10410898;28;20079;-88
2022/03/13 01:22:07;;;;;;;11.95;3.40;;;1.30;90.60;;;;;;10413730;28;20136;-88
2022/03/13 01:27:11;;;;;;;13.48;3.78;;;1.20;90.80;;;;;;10414519;28;20053;-89
2022/03/13 01:32:13;;;;;;;7.30;3.33;;;1.20;91.90;;;;;;10378825;28;20040;-88
2022/03/13 01:37:15;;;;;;;20.52;5.10;;;1.10;92.40;;;;;;10405071;28;20598;-90
2022/03/13 01:42:17;;;;;;;12.32;3.88;;;1.10;93.50;;;;;;10396069;28;20123;-88
2022/03/13 01:47:19;;;;;;;20.50;4.72;;;1.00;94.30;;;;;;10326880;28;20046;-88
2022/03/13 01:52:28;;;;;;;11.65;4.25;;;0.90;94.90;;;;;;10307635;28;20050;-88
2022/03/13 01:57:32;;;;;;;10.02;3.30;;;0.90;93.00;;;;;;10380510;28;20073;-88
2022/03/13 02:02:34;;;;;;;9.88;3.78;;;0.80;92.70;;;;;;10416456;28;20041;-87
2022/03/13 02:07:36;;;;;;;10.40;3.35;;;0.80;92.00;;;;;;10415534;28;20390;-88
2022/03/13 02:12:39;;;;;;;9.77;2.55;;;0.80;93.60;;;;;;10399729;28;20053;-87
2022/03/13 02:17:41;;;;;;;13.27;2.95;;;0.80;94.60;;;;;;10396071;28;20152;-88
2022/03/13 02:23:02;;;;;;;9.10;2.63;;;0.70;95.50;;;;;;10407268;28;20049;-87
2022/03/13 02:28:04;;;;;;;4.68;2.30;;;0.60;94.50;;;;;;10414218;28;20055;-88
2022/03/13 02:33:11;;;;;;;12.07;3.30;;;0.60;95.20;;;;;;10421290;28;20140;-88
2022/03/13 02:38:13;;;;;;;5.87;2.97;;;0.50;93.30;;;;;;10405661;28;20054;-88
2022/03/13 02:43:17;;;;;;;8.00;3.38;;;0.50;94.40;;;;;;10432082;28;20045;-88
2022/03/13 02:48:19;;;;;;;9.05;2.65;;;0.50;92.90;;;;;;10401723;28;20114;-88
2022/03/13 02:53:21;;;;;;;8.30;2.50;;;0.50;92.20;;;;;;10401669;28;20049;-88
2022/03/13 02:58:33;;;;;;;10.70;3.17;;;0.50;93.10;;;;;;10406671;28;20053;-88
2022/03/13 03:03:37;;;;;;;9.18;3.22;;;0.40;93.00;;;;;;10417004;28;20124;-88
2022/03/13 03:08:39;;;;;;;12.00;3.55;;;0.40;93.70;;;;;;10414022;28;20051;-88
2022/03/13 03:13:40;;;;;;;6.03;3.30;;;0.30;94.30;;;;;;10405871;28;22797;-88
2022/03/13 03:18:47;;;;;;;9.38;3.35;;;0.30;94.40;;;;;;10394415;28;20049;-88
2022/03/13 03:23:50;;;;;;;9.68;2.83;;;0.30;93.90;;;;;;10398912;28;20056;-88
2022/03/13 03:28:51;;;;;;;7.32;2.85;;;0.30;95.10;;;;;;10393069;28;20446;-87
2022/03/13 03:33:53;;;;;;;7.13;3.53;;;0.20;95.80;;;;;;10418324;28;20049;-88
2022/03/13 03:38:55;;;;;;;8.57;3.05;;;0.20;96.80;;;;;;10388540;28;20136;-90
2022/03/13 03:43:57;;;;;;;8.80;2.72;;;0.10;96.10;;;;;;10410805;28;20046;-88
2022/03/13 03:48:59;;;;;;;4.47;2.70;;;0.10;97.60;;;;;;10408757;28;20060;-87
2022/03/13 03:54:03;;;;;;;8.00;3.28;;;0.10;97.50;;;;;;10395555;28;20127;-88
2022/03/13 03:59:05;;;;;;;9.23;3.33;;;0.00;97.50;;;;;;10408505;28;20077;-87
2022/03/13 04:04:08;;;;;;;6.53;2.80;;;0.00;97.10;;;;;;10379378;28;20049;-88
2022/03/13 04:09:11;;;;;;;11.13;3.05;;;0.00;96.10;;;;;;10375379;28;20053;-88
2022/03/13 04:14:14;;;;;;;6.93;2.30;;;-0.10;94.90;;;;;;10384544;28;20075;-88
2022/03/13 04:19:15;;;;;;;8.93;2.85;;;-0.10;95.50;;;;;;10371548;28;20054;-88
2022/03/13 04:24:17;;;;;;;6.07;2.78;;;-0.10;94.70;;;;;;10395401;28;20059;-88
2022/03/13 04:29:23;;;;;;;8.48;2.83;;;-0.10;94.30;;;;;;10427695;28;20052;-88
2022/03/13 04:34:24;;;;;;;9.32;2.75;;;-0.10;97.50;;;;;;10382611;28;20057;-88
2022/03/13 04:39:27;;;;;;;6.55;2.88;;;-0.20;98.70;;;;;;10391392;28;20068;-88
2022/03/13 04:44:29;;;;;;;5.60;2.58;;;-0.20;98.80;;;;;;10407642;28;20057;-88
2022/03/13 04:49:31;;;;;;;6.60;2.85;;;-0.20;96.50;;;;;;10393923;28;20599;-88
2022/03/13 04:54:32;;;;;;;10.13;2.28;;;-0.30;93.60;;;;;;10389247;28;20037;-88
2022/03/13 04:59:34;;;;;;;7.07;2.58;;;-0.30;96.70;;;;;;10391817;28;20136;-88
2022/03/13 05:04:37;;;;;;;7.47;2.45;;;-0.30;96.60;;;;;;10399139;28;20106;-88
2022/03/13 05:09:39;;;;;;;9.43;2.90;;;-0.30;97.80;;;;;;10402416;28;20067;-88
2022/03/13 05:14:41;;;;;;;6.32;2.72;;;-0.40;98.00;;;;;;10387388;28;20061;-88
2022/03/13 05:19:44;;;;;;;7.63;2.72;;;-0.40;98.40;;;;;;10367566;28;20511;-88
2022/03/13 05:24:46;;;;;;;10.30;2.78;;;-0.50;97.90;;;;;;10406864;28;20040;-88
2022/03/13 05:29:48;;;;;;;6.93;2.88;;;-0.50;97.60;;;;;;10412078;28;20125;-88
2022/03/13 05:34:50;;;;;;;5.88;2.33;;;-0.40;98.30;;;;;;10428715;28;20045;-88
2022/03/13 05:39:52;;;;;;;12.32;5.57;;;-0.50;98.20;;;;;;10396991;28;20118;-87
2022/03/13 05:45:07;;;;;;;11.32;3.50;;;-0.50;95.70;;;;;;10408062;28;20045;-88
2022/03/13 05:50:09;;;;;;;8.07;3.05;;;-0.50;95.40;;;;;;10424198;28;20055;-88
2022/03/13 05:55:11;;;;;;;9.82;4.18;;;-0.50;95.50;;;;;;10394609;28;21179;-89
2022/03/13 06:00:15;;;;;;;5.85;2.55;;;-0.50;96.00;;;;;;10417488;28;20041;-89
2022/03/13 06:05:18;;;;;;;6.95;2.63;;;-0.50;96.80;;;;;;10402147;28;20045;-89
2022/03/13 06:10:20;;;;;;;11.25;2.65;;;-0.50;96.60;;;;;;10409635;28;20123;-89
2022/03/13 06:15:22;;;;;;;4.88;2.88;;;-0.40;95.80;;;;;;10394018;28;20084;-89
2022/03/13 06:20:24;;;;;;;7.28;3.15;;;-0.40;94.70;;;;;;10402880;28;20065;-88
2022/03/13 06:25:25;;;;;;;5.50;2.40;;;-0.40;93.20;;;;;;10401170;28;20563;-88
2022/03/13 06:30:28;;;;;;;10.05;3.35;;;-0.30;93.50;;;;;;10416663;28;20052;-88
2022/03/13 06:35:30;;;;;;;10.23;3.55;;;-0.20;92.60;;;;;;10431616;28;20052;-89
2022/03/13 06:40:32;;;;;;;6.07;2.40;;;-0.10;92.30;;;;;;10394806;28;20316;-89
2022/03/13 06:45:34;;;;;;;4.30;2.70;;;0.00;92.80;;;;;;10411577;28;20041;-89
2022/03/13 06:50:36;;;;;;;7.15;2.58;;;0.20;92.30;;;;;;10389072;28;20408;-90
2022/03/13 06:55:52;;;;;;;8.35;3.10;;;0.30;90.90;;;;;;10428279;28;20049;-90
2022/03/13 07:00:54;;;;;;;6.60;2.83;;;0.50;90.00;;;;;;10393238;28;20053;-91
2022/03/13 07:06:13;;;;;;;14.55;3.38;;;0.60;88.20;;;;;;10386405;28;20049;-91
2022/03/13 07:11:15;;;;;;;10.63;2.83;;;0.80;86.30;;;;;;10378358;28;20077;-90
2022/03/13 07:16:17;;;;;;;12.07;3.75;;;0.90;82.90;;;;;;10400832;28;20445;-90
2022/03/13 07:21:18;;;;;;;9.50;3.80;;;1.10;84.00;;;;;;10387212;28;20152;-90
2022/03/13 07:26:21;;;;;;;10.02;4.55;;;1.40;83.00;;;;;;10393818;28;20568;-90
2022/03/13 07:31:23;;;;;;;8.68;3.50;;;1.60;83.30;;;;;;10402898;28;20051;-90
2022/03/13 07:36:24;;;;;;;7.90;3.10;;;1.90;80.80;;;;;;10410950;28;20348;-89
2022/03/13 07:41:29;;;;;;;7.68;2.55;;;2.10;76.40;;;;;;10380056;28;20063;-89
2022/03/13 07:46:31;;;;;;;17.70;3.25;;;2.40;74.00;;;;;;10388248;28;20065;-89
2022/03/13 07:51:34;;;;;;;5.22;2.40;;;2.70;70.30;;;;;;10392611;28;20049;-89
2022/03/13 07:56:37;;;;;;;8.07;2.63;;;3.00;68.70;;;;;;10390642;28;20175;-90
2022/03/13 08:01:41;;;;;;;6.55;2.50;;;3.20;65.40;;;;;;10402643;28;20071;-90
2022/03/13 08:06:44;;;;;;;6.78;1.98;;;3.50;58.90;;;;;;10385697;28;20041;-89
2022/03/13 08:11:45;;;;;;;5.32;2.17;;;3.70;57.80;;;;;;10404566;28;20045;-90
2022/03/13 08:17:19;;;;;;;5.03;2.55;;;4.10;57.30;;;;;;10417552;28;20061;-90
2022/03/13 08:22:22;;;;;;;4.45;2.10;;;4.40;56.80;;;;;;10368295;28;20055;-89
2022/03/13 08:27:25;;;;;;;8.20;2.75;;;4.60;57.00;;;;;;10337890;28;20052;-88
2022/03/13 08:32:27;;;;;;;8.57;2.38;;;4.90;53.90;;;;;;10390833;28;20053;-90
2022/03/13 08:37:31;;;;;;;5.47;2.05;;;5.00;54.50;;;;;;10362621;28;20052;-89
2022/03/13 08:42:33;;;;;;;8.75;2.67;;;5.20;54.00;;;;;;10376481;28;20133;-89
2022/03/13 08:47:44;;;;;;;9.88;2.55;;;5.40;53.70;;;;;;10347051;28;20138;-89
2022/03/13 08:52:46;;;;;;;5.32;2.25;;;5.60;51.90;;;;;;10363361;28;20077;-89
2022/03/13 08:57:53;;;;;;;6.93;2.50;;;5.80;50.80;;;;;;10344100;28;20046;-88
2022/03/13 09:02:56;;;;;;;4.68;2.38;;;5.90;49.10;;;;;;10296846;28;20057;-89
2022/03/13 09:08:01;;;;;;;8.23;2.42;;;6.10;49.80;;;;;;10265665;28;20060;-89
2022/03/13 09:13:10;;;;;;;7.03;2.75;;;6.20;49.40;;;;;;10218103;28;20050;-88
2022/03/13 09:18:13;;;;;;;5.60;2.60;;;6.40;48.90;;;;;;10355571;28;20062;-90
2022/03/13 09:23:15;;;;;;;7.63;2.67;;;6.50;49.30;;;;;;10343013;28;20149;-90
2022/03/13 09:28:17;;;;;;;10.40;3.53;;;6.70;49.10;;;;;;10356100;28;20072;-90
2022/03/13 09:33:19;;;;;;;5.13;3.38;;;6.80;49.40;;;;;;10292275;28;20096;-90
2022/03/13 09:38:21;;;;;;;5.13;2.33;;;6.90;48.80;;;;;;10325870;28;20057;-90
2022/03/13 09:43:23;;;;;;;7.05;2.60;;;7.00;49.90;;;;;;10349048;28;20527;-89
2022/03/13 09:48:34;;;;;;;5.35;2.50;;;7.20;49.70;;;;;;10277362;28;20080;-90
2022/03/13 09:53:37;;;;;;;6.97;3.65;;;7.40;48.90;;;;;;10255615;28;20045;-89
2022/03/13 09:58:45;;;;;;;5.07;3.13;;;7.60;48.10;;;;;;10249431;28;20059;-89
2022/03/13 10:03:50;;;;;;;5.95;2.70;;;7.70;48.40;;;;;;10335060;28;20049;-89
2022/03/13 10:08:51;;;;;;;9.38;3.45;;;7.90;47.90;;;;;;10365334;28;20049;-89
2022/03/13 10:14:08;;;;;;;6.10;3.10;;;8.10;47.50;;;;;;10365062;28;20144;-89
2022/03/13 10:19:17;;;;;;;4.83;2.27;;;8.20;45.40;;;;;;10369592;28;20045;-89
2022/03/13 10:24:19;;;;;;;7.20;3.33;;;8.40;45.20;;;;;;10347097;28;20053;-88
2022/03/13 10:29:30;;;;;;;11.40;3.50;;;8.70;45.20;;;;;;10352186;28;20045;-89
2022/03/13 10:34:33;;;;;;;8.35;3.75;;;9.10;44.10;;;;;;10382831;28;20051;-89
2022/03/13 10:39:36;;;;;;;8.68;3.40;;;9.80;42.90;;;;;;10382816;28;20053;-89
2022/03/13 10:44:42;;;;;;;5.93;3.33;;;10.80;41.40;;;;;;10378930;28;20080;-90
2022/03/13 10:49:45;;;;;;;7.63;2.97;;;11.70;38.60;;;;;;10396973;28;20048;-90
2022/03/13 10:54:47;;;;;;;9.45;3.55;;;12.10;37.50;;;;;;10382362;28;20041;-89
2022/03/13 11:00:15;;;;;;;6.65;3.47;;;12.00;38.30;;;;;;10399513;28;20072;-92
2022/03/13 11:05:27;;;;;;;6.57;2.97;;;11.90;38.50;;;;;;10394540;28;20426;-91
2022/03/13 11:10:28;;;;;;;7.68;3.53;;;11.70;38.50;;;;;;10387550;28;20061;-92
2022/03/13 11:15:34;;;;;;;6.38;2.97;;;11.60;38.90;;;;;;10384302;28;20084;-92
2022/03/13 11:20:48;;;;;;;4.90;3.20;;;11.70;39.20;;;;;;10141379;28;20110;-92
2022/03/13 11:25:55;;;;;;;8.35;3.75;;;11.70;39.40;;;;;;10360884;28;20071;-91
2022/03/13 11:30:58;;;;;;;6.75;3.50;;;12.10;39.10;;;;;;10397009;28;20053;-92
2022/03/13 11:36:25;;;;;;;5.65;3.30;;;13.20;38.50;;;;;;10397647;28;20049;-93
2022/03/13 11:41:41;;;;;;;5.70;3.75;;;14.40;35.20;;;;;;10358540;28;20053;-93
2022/03/13 11:46:45;;;;;;;5.75;3.00;;;15.10;34.80;;;;;;10406953;28;20152;-91
2022/03/13 11:51:48;;;;;;;5.18;3.55;;;16.40;33.30;;;;;;10362693;28;20044;-91
2022/03/13 11:57:33;;;;;;;6.05;3.20;;;17.60;32.20;;;;;;10395055;28;20049;-92
2022/03/13 12:02:41;;;;;;;4.47;2.83;;;18.80;30.80;;;;;;10389891;28;20065;-92
2022/03/13 12:07:54;;;;;;;6.90;3.72;;;;;;;;;;10402908;28;20062;-92
2022/03/13 12:13:06;;;;;;;6.35;4.05;;;20.70;28.20;;;;;;10382411;28;20188;-91
2022/03/13 12:18:17;;;;;;;5.53;3.17;;;21.30;28.60;;;;;;10381292;28;20084;-92
2022/03/13 12:23:31;;;;;;;9.25;4.03;;;22.00;27.90;;;;;;10384138;28;20048;-92
2022/03/13 12:28:35;;;;;;;5.30;3.42;;;23.30;26.10;;;;;;10362908;28;20057;-92
2022/03/13 12:34:21;;;;;;;6.85;3.50;;;23.60;26.80;;;;;;10409621;28;20047;-92
2022/03/13 12:39:50;;;;;;;4.70;3.13;;;24.60;26.60;;;;;;10320936;28;20046;-91
2022/03/13 12:45:03;;;;;;;5.32;3.35;;;24.40;26.10;;;;;;10386264;28;20492;-91
2022/03/13 12:50:09;;;;;;;4.75;3.47;;;25.10;25.40;;;;;;10407604;28;20658;-91
2022/03/13 12:55:11;;;;;;;9.80;3.33;;;24.80;25.60;;;;;;10426362;28;20114;-92
2022/03/13 13:00:18;;;;;;;4.93;3.40;;;;;;;;;;10411967;28;20049;-93
2022/03/13 13:05:20;;;;;;;6.45;3.95;;;25.50;25.10;;;;;;10349171;22;20061;-63
2022/03/13 13:10:22;;;;;;;5.03;3.35;;;25.90;41.20;;;;;;10378319;28;20045;-63
2022/03/13 13:15:23;;;;;;;6.68;3.63;;;26.10;24.70;;;;;;10370596;28;20108;-63
2022/03/13 13:20:31;;;;;;;8.00;4.00;;;25.70;25.10;;;;;;10368689;28;20072;-63
2022/03/13 13:25:32;;;;;;;6.07;3.85;;;25.40;25.20;;;;;;10378554;28;20131;-63
2022/03/13 13:30:35;;;;;;;8.68;4.03;;;25.40;24.90;;;;;;10381499;28;20065;-63
2022/03/13 13:35:46;;;;;;;7.00;3.67;;;25.80;25.70;;;;;;10377879;28;20525;-63
2022/03/13 13:41:01;;;;;;;5.60;4.13;;;25.10;25.50;;;;;;10389828;28;20079;-62
2022/03/13 13:46:03;;;;;;;5.63;3.63;;;25.10;25.60;;;;;;10377316;28;20044;-63
2022/03/13 13:51:20;;;;;;;8.73;4.28;;;25.10;25.30;;;;;;10400765;28;20073;-62
2022/03/13 13:56:31;;;;;;;7.55;4.15;;;24.50;26.10;;;;;;10382528;28;20124;-63
2022/03/13 14:01:32;;;;;;;7.93;4.65;;;24.50;26.10;;;;;;10383016;28;20544;-63
2022/03/13 14:06:34;;;;;;;6.57;4.13;;;24.40;26.50;;;;;;10389653;28;20053;-63
2022/03/13 14:11:37;;;;;;;9.93;3.85;;;23.80;26.00;;;;;;10380902;28;20048;-63
2022/03/13 14:16:39;;;;;;;8.50;5.32;;;23.70;26.60;;;;;;10386057;28;20099;-63
2022/03/13 14:21:55;;;;;;;8.23;4.75;;;23.80;26.50;;;;;;10387431;28;20053;-63
2022/03/13 14:26:57;;;;;;;6.70;4.32;;;22.50;26.60;;;;;;10384580;28;20049;-62
2022/03/13 14:31:59;;;;;;;6.82;5.00;;;22.70;26.80;;;;;;10386448;28;20142;-63
2022/03/13 14:37:02;;;;;;;7.07;4.32;;;22.20;26.90;;;;;;10386702;28;21312;-63
2022/03/13 14:42:04;;;;;;;6.72;4.57;;;21.90;27.40;;;;;;10382108;28;20111;-65
2022/03/13 14:47:07;;;;;;;7.05;4.20;;;22.40;27.90;;;;;;10387493;28;20091;-65
2022/03/13 14:52:09;;;;;;;5.72;3.35;;;21.90;27.40;;;;;;10380078;28;20081;-64
2022/03/13 14:57:10;;;;;;;6.68;4.57;;;21.10;28.10;;;;;;10379654;28;20064;-62
2022/03/13 15:02:12;;;;;;;9.60;4.75;;;20.00;29.30;;;;;;10382980;28;20073;-63
2022/03/13 15:07:18;;;;;;;7.97;5.32;;;19.80;30.00;;;;;;10372742;28;20052;-62
2022/03/13 15:12:21;;;;;;;7.20;4.65;;;20.00;30.10;;;;;;10384949;28;20084;-61
2022/03/13 15:17:23;;;;;;;7.90;5.03;;;20.00;30.30;;;;;;10381291;28;20057;-61
2022/03/13 15:22:25;;;;;;;8.52;4.43;;;19.90;30.20;;;;;;10374972;28;20050;-61
2022/03/13 15:27:27;;;;;;;9.25;5.38;;;19.60;30.80;;;;;;10386100;28;20065;-61
2022/03/13 15:32:29;;;;;;;11.82;4.85;;;19.50;30.50;;;;;;10379849;28;20049;-61
2022/03/13 15:37:31;;;;;;;8.73;5.05;;;19.40;31.30;;;;;;10380136;28;20081;-61
2022/03/13 15:42:34;;;;;;;7.03;4.40;;;19.20;31.60;;;;;;10384051;28;20045;-62
2022/03/13 15:47:36;;;;;;;9.52;4.72;;;19.40;31.00;;;;;;10368963;28;20055;-62
2022/03/13 15:52:37;;;;;;;10.00;5.15;;;19.10;31.60;;;;;;10378246;28;20127;-62
2022/03/13 15:57:39;;;;;;;11.88;4.95;;;18.80;31.70;;;;;;10383192;28;20134;-61
2022/03/13 16:02:41;;;;;;;12.20;6.03;;;18.80;32.30;;;;;;10360816;28;20077;-60
2022/03/13 16:07:46;;;;;;;9.52;5.07;;;18.50;32.60;;;;;;10380152;28;20586;-62
2022/03/13 16:12:49;;;;;;;12.52;4.85;;;18.30;33.00;;;;;;10365541;28;20081;-61
2022/03/13 16:17:53;;;;;;;9.52;5.05;;;18.10;33.10;;;;;;10380952;28;20065;-61
2022/03/13 16:22:55;;;;;;;12.88;5.20;;;17.80;33.90;;;;;;10374946;28;20127;-62
2022/03/13 16:27:59;;;;;;;9.40;5.47;;;17.50;34.40;;;;;;10379899;28;20060;-62
2022/03/13 16:33:04;;;;;;;10.15;4.75;;;17.30;35.80;;;;;;10379738;28;20065;-61
2022/03/13 16:38:06;;;;;;;9.60;5.03;;;17.20;37.60;;;;;;10375923;28;20057;-61
2022/03/13 16:43:09;;;;;;;11.45;5.05;;;16.90;35.60;;;;;;10382478;28;20049;-62
2022/03/13 16:48:10;;;;;;;15.52;5.97;;;16.70;35.90;;;;;;10383798;28;20081;-62
2022/03/13 16:53:16;;;;;;;14.30;5.15;;;16.40;35.60;;;;;;10384214;28;20068;-61
2022/03/13 16:58:19;;;;;;;13.48;5.10;;;16.00;35.90;;;;;;10376063;28;20095;-61
2022/03/13 17:03:20;;;;;;;10.43;5.32;;;15.70;37.20;;;;;;10369883;28;20053;-62
2022/03/13 17:08:22;;;;;;;10.30;5.55;;;15.40;38.30;;;;;;10378832;28;20132;-62
2022/03/13 17:13:28;;;;;;;13.35;5.00;;;15.10;39.60;;;;;;10380887;28;20049;-61
2022/03/13 17:18:32;;;;;;;9.65;5.07;;;14.80;40.20;;;;;;10378626;28;20058;-61
2022/03/13 17:23:34;;;;;;;12.18;5.20;;;14.40;41.90;;;;;;10371255;28;20085;-62
2022/03/13 17:28:36;;;;;;;13.70;5.65;;;14.10;45.60;;;;;;10376666;28;20111;-61
2022/03/13 17:33:37;;;;;;;18.80;6.07;;;13.80;44.50;;;;;;10384710;28;20087;-62
2022/03/13 17:38:39;;;;;;;25.63;6.88;;;13.50;44.90;;;;;;10365342;28;20049;-62
2022/03/13 17:43:41;;;;;;;15.55;6.15;;;13.10;46.30;;;;;;10358904;28;20513;-61
2022/03/13 17:48:43;;;;;;;19.27;6.03;;;12.80;47.00;;;;;;10381686;28;20041;-58
2022/03/13 17:53:44;;;;;;;15.98;7.05;;;12.60;47.50;;;;;;10361726;28;20077;-57
2022/03/13 17:58:46;;;;;;;18.38;7.35;;;12.30;50.30;;;;;;10381888;28;20107;-57
2022/03/13 18:03:48;;;;;;;13.73;6.30;;;12.10;50.50;;;;;;10380462;28;20053;-58
2022/03/13 18:08:50;;;;;;;16.98;7.15;;;11.90;51.80;;;;;;10379242;28;20041;-59
2022/03/13 18:13:52;;;;;;;21.40;9.20;;;11.70;54.00;;;;;;10379341;28;20049;-59
2022/03/13 18:18:54;;;;;;;19.05;8.68;;;11.50;55.60;;;;;;10377272;28;20103;-57
2022/03/13 18:23:56;;;;;;;20.88;7.90;;;11.40;55.90;;;;;;10374539;28;20072;-59
2022/03/13 18:28:57;;;;;;;44.53;14.70;;;11.20;55.80;;;;;;10388918;28;20099;-56
2022/03/13 18:33:59;;;;;;;32.88;12.23;;;11.10;56.10;;;;;;10374565;28;20049;-57
2022/03/13 18:39:01;;;;;;;23.90;10.93;;;11.00;55.60;;;;;;10393553;28;20077;-59
2022/03/13 18:44:04;;;;;;;23.15;9.98;;;10.80;56.20;;;;;;10375378;28;20100;-56
2022/03/13 18:49:06;;;;;;;17.10;9.18;;;10.60;57.10;;;;;;10376279;28;20041;-56
2022/03/13 18:54:09;;;;;;;18.48;7.97;;;10.50;56.80;;;;;;10392817;28;20182;-56
2022/03/13 18:59:10;;;;;;;19.65;8.25;;;10.30;55.80;;;;;;10372579;28;20496;-57
2022/03/13 19:04:12;;;;;;;17.77;8.77;;;10.10;57.00;;;;;;10381867;28;20095;-58
2022/03/13 19:09:14;;;;;;;17.58;8.10;;;9.90;56.90;;;;;;10374367;28;20058;-58
2022/03/13 19:14:17;;;;;;;16.00;8.20;;;9.80;56.20;;;;;;10390306;28;20111;-57
2022/03/13 19:19:19;;;;;;;15.40;7.80;;;9.60;57.60;;;;;;10387355;28;20761;-57
2022/03/13 19:24:21;;;;;;;14.82;7.63;;;9.40;57.90;;;;;;10378927;28;20045;-57
2022/03/13 19:29:23;;;;;;;19.52;7.65;;;9.20;58.00;;;;;;10386553;28;20065;-56
2022/03/13 19:34:25;;;;;;;19.02;8.82;;;9.10;58.30;;;;;;10383706;28;20392;-56
2022/03/13 19:39:26;;;;;;;17.83;8.20;;;8.90;61.20;;;;;;10386594;28;20549;-57
2022/03/13 19:44:29;;;;;;;16.67;7.82;;;8.70;64.30;;;;;;10376812;28;20385;-56
2022/03/13 19:49:34;;;;;;;14.40;8.40;;;8.50;61.80;;;;;;10384925;28;20056;-56
2022/03/13 19:54:36;;;;;;;19.17;8.80;;;8.40;62.90;;;;;;10383006;28;20049;-56
2022/03/13 19:59:37;;;;;;;19.63;8.13;;;8.30;63.70;;;;;;10376036;28;20139;-56
2022/03/13 20:04:40;;;;;;;20.08;7.65;;;8.10;64.70;;;;;;10379293;28;20122;-57
2022/03/13 20:09:42;;;;;;;20.35;7.45;;;8.10;64.00;;;;;;10379866;28;20198;-58
2022/03/13 20:14:45;;;;;;;30.17;9.48;;;8.00;65.10;;;;;;10391212;28;23640;-56
2022/03/13 20:19:47;;;;;;;16.63;7.38;;;7.90;66.00;;;;;;10381402;28;20053;-58
2022/03/13 20:24:51;;;;;;;19.15;7.35;;;7.80;65.70;;;;;;10375928;28;20136;-56
2022/03/13 20:29:52;;;;;;;15.82;8.63;;;7.70;66.20;;;;;;10376850;28;20123;-56
2022/03/13 20:34:54;;;;;;;19.27;7.82;;;7.70;66.30;;;;;;10373053;28;20081;-57
2022/03/13 20:39:56;;;;;;;20.75;7.68;;;7.60;66.30;;;;;;10370512;28;20329;-56
2022/03/13 20:44:57;;;;;;;20.02;7.95;;;7.60;66.30;;;;;;10375136;28;20127;-57
2022/03/13 20:49:59;;;;;;;16.63;7.85;;;7.50;66.50;;;;;;10383781;28;20532;-57
2022/03/13 20:55:01;;;;;;;12.77;6.95;;;7.40;67.30;;;;;;10380514;28;20085;-56
2022/03/13 21:00:06;;;;;;;15.85;6.65;;;7.30;67.50;;;;;;10373713;28;22712;-56
2022/03/13 21:05:07;;;;;;;17.10;6.97;;;7.30;67.10;;;;;;10383060;28;20133;-56
2022/03/13 21:10:10;;;;;;;16.98;7.28;;;7.20;67.20;;;;;;10383360;28;20473;-57
2022/03/13 21:15:14;;;;;;;19.83;7.75;;;7.20;67.50;;;;;;10380335;28;20049;-56
2022/03/13 21:20:18;;;;;;;17.60;8.60;;;7.20;67.40;;;;;;10382451;28;20041;-56
2022/03/13 21:25:20;;;;;;;14.82;6.80;;;7.10;67.90;;;;;;10372482;28;20107;-56
2022/03/13 21:30:23;;;;;;;11.35;6.00;;;7.10;68.40;;;;;;10376651;28;20045;-56
2022/03/13 21:35:24;;;;;;;10.98;6.20;;;7.10;68.70;;;;;;10383442;28;20077;-56
2022/03/13 21:40:26;;;;;;;15.02;7.85;;;7.00;68.30;;;;;;10382561;28;20106;-56
2022/03/13 21:45:28;;;;;;;16.65;7.50;;;7.00;68.20;;;;;;10383453;28;20123;-56
2022/03/13 21:50:30;;;;;;;19.98;8.10;;;7.00;68.70;;;;;;10384833;28;20049;-56
2022/03/13 21:55:33;;;;;;;18.88;7.45;;;7.00;70.10;;;;;;10378412;28;20636;-56
2022/03/13 22:00:36;;;;;;;17.35;6.95;;;6.90;69.70;;;;;;10376956;28;20053;-57
2022/03/13 22:05:38;;;;;;;15.73;6.85;;;6.90;69.30;;;;;;10384193;28;20078;-57
2022/03/13 22:10:41;;;;;;;16.02;7.28;;;6.90;68.90;;;;;;10389770;28;20148;-56
2022/03/13 22:15:49;;;;;;;18.90;9.40;;;6.90;68.70;;;;;;10384536;28;20061;-56
2022/03/13 22:20:51;;;;;;;19.70;7.57;;;6.90;69.20;;;;;;10386622;28;20041;-57
2022/03/13 22:25:53;;;;;;;13.23;7.20;;;6.90;69.80;;;;;;10391240;28;20111;-57
2022/03/13 22:30:54;;;;;;;16.02;7.40;;;7.00;70.10;;;;;;10391895;28;20069;-56
2022/03/13 22:35:56;;;;;;;16.25;6.15;;;7.00;68.70;;;;;;10389438;28;20064;-56
2022/03/13 22:40:58;;;;;;;19.95;7.38;;;7.00;68.10;;;;;;10389909;28;20085;-57
2022/03/13 22:45:59;;;;;;;12.05;5.55;;;7.10;69.20;;;;;;10389329;28;20099;-57
2022/03/13 22:51:01;;;;;;;12.40;6.57;;;7.10;69.50;;;;;;10390473;28;20080;-56
2022/03/13 22:56:04;;;;;;;12.13;5.70;;;7.10;69.80;;;;;;10389292;28;20044;-56
2022/03/13 23:01:07;;;;;;;14.80;6.35;;;7.10;71.00;;;;;;10388075;28;20065;-57
2022/03/13 23:06:09;;;;;;;13.70;6.03;;;7.10;70.60;;;;;;10388372;28;20103;-56
2022/03/13 23:11:11;;;;;;;12.95;5.30;;;7.10;70.60;;;;;;10387779;28;20084;-56
2022/03/13 23:16:13;;;;;;;14.43;6.47;;;7.00;70.70;;;;;;10389798;28;20069;-56
2022/03/13 23:21:16;;;;;;;11.98;6.40;;;7.10;71.30;;;;;;10386706;28;20056;-56
2022/03/13 23:26:18;;;;;;;12.65;5.43;;;7.00;71.80;;;;;;10381337;28;20049;-56
2022/03/13 23:31:22;;;;;;;15.38;6.00;;;7.00;71.90;;;;;;10386065;28;20115;-56
2022/03/13 23:36:24;;;;;;;10.98;5.10;;;7.00;71.70;;;;;;10384809;28;20545;-56
2022/03/13 23:41:29;;;;;;;20.92;5.95;;;7.00;71.70;;;;;;10379749;28;20523;-56
2022/03/13 23:46:31;;;;;;;12.50;5.35;;;7.00;72.00;;;;;;10385977;28;20076;-56
2022/03/13 23:51:32;;;;;;;16.88;6.38;;;7.00;71.90;;;;;;10386447;28;20107;-57
2022/03/13 23:56:36;;;;;;;13.88;5.97;;;7.10;71.70;;;;;;10380829;28;20099;-56
